sensor_id;sensor_type;location;lat;lon;timestamp;temperature;humidity
78902;DHT22;70441;44.758;37.686;2023-11-22T00:00:19;8.50;81.43
78902;DHT22;70441;44.758;37.686;2023-11-22T00:01:22;8.54;81.28
78902;DHT22;70441;44.758;37.686;2023-11-22T00:02:23;8.57;81.17
78902;DHT22;70441;44.758;37.686;2023-11-22T00:03:27;8.60;81.08
78902;DHT22;70441;44.758;37.686;2023-11-22T00:04:29;8.62;81.06
78902;DHT22;70441;44.758;37.686;2023-11-22T00:05:30;8.65;80.98
78902;DHT22;70441;44.758;37.686;2023-11-22T00:06:32;8.67;80.90
78902;DHT22;70441;44.758;37.686;2023-11-22T00:07:33;8.69;80.77
78902;DHT22;70441;44.758;37.686;2023-11-22T00:08:34;8.71;80.81
78902;DHT22;70441;44.758;37.686;2023-11-22T00:09:36;8.69;80.74
78902;DHT22;70441;44.758;37.686;2023-11-22T00:10:37;8.69;80.99
78902;DHT22;70441;44.758;37.686;2023-11-22T00:11:38;8.69;80.91
78902;DHT22;70441;44.758;37.686;2023-11-22T00:12:40;8.68;80.92
78902;DHT22;70441;44.758;37.686;2023-11-22T00:13:41;8.65;81.18
78902;DHT22;70441;44.758;37.686;2023-11-22T00:14:42;8.67;81.33
78902;DHT22;70441;44.758;37.686;2023-11-22T00:15:44;8.68;81.23
78902;DHT22;70441;44.758;37.686;2023-11-22T00:16:45;8.64;81.19
78902;DHT22;70441;44.758;37.686;2023-11-22T00:17:47;8.65;81.33
78902;DHT22;70441;44.758;37.686;2023-11-22T00:18:48;8.65;81.41
78902;DHT22;70441;44.758;37.686;2023-11-22T00:19:49;8.67;81.29
78902;DHT22;70441;44.758;37.686;2023-11-22T00:20:52;8.67;81.43
78902;DHT22;70441;44.758;37.686;2023-11-22T00:21:53;8.71;81.44
78902;DHT22;70441;44.758;37.686;2023-11-22T00:22:54;8.73;81.52
78902;DHT22;70441;44.758;37.686;2023-11-22T00:23:55;8.73;81.45
78902;DHT22;70441;44.758;37.686;2023-11-22T00:24:57;8.75;81.43
78902;DHT22;70441;44.758;37.686;2023-11-22T00:25:58;8.76;81.31
78902;DHT22;70441;44.758;37.686;2023-11-22T00:26:59;8.79;81.42
78902;DHT22;70441;44.758;37.686;2023-11-22T00:28:01;8.76;81.55
78902;DHT22;70441;44.758;37.686;2023-11-22T00:29:02;8.79;81.55
78902;DHT22;70441;44.758;37.686;2023-11-22T00:30:04;8.80;81.52
78902;DHT22;70441;44.758;37.686;2023-11-22T00:31:06;8.85;81.46
78902;DHT22;70441;44.758;37.686;2023-11-22T00:32:07;8.79;81.56
78902;DHT22;70441;44.758;37.686;2023-11-22T00:33:09;8.79;81.64
78902;DHT22;70441;44.758;37.686;2023-11-22T00:34:10;8.79;81.77
78902;DHT22;70441;44.758;37.686;2023-11-22T00:35:11;8.79;81.89
78902;DHT22;70441;44.758;37.686;2023-11-22T00:36:13;8.82;81.91
78902;DHT22;70441;44.758;37.686;2023-11-22T00:37:14;8.86;81.95
78902;DHT22;70441;44.758;37.686;2023-11-22T00:38:17;8.87;82.01
78902;DHT22;70441;44.758;37.686;2023-11-22T00:39:18;8.92;81.99
78902;DHT22;70441;44.758;37.686;2023-11-22T00:40:20;8.93;81.98
78902;DHT22;70441;44.758;37.686;2023-11-22T00:41:21;8.99;81.91
78902;DHT22;70441;44.758;37.686;2023-11-22T00:42:22;9.02;81.65
78902;DHT22;70441;44.758;37.686;2023-11-22T00:43:24;9.06;81.56
78902;DHT22;70441;44.758;37.686;2023-11-22T00:44:26;9.09;81.51
78902;DHT22;70441;44.758;37.686;2023-11-22T00:45:28;9.13;81.41
78902;DHT22;70441;44.758;37.686;2023-11-22T00:46:32;9.17;81.41
78902;DHT22;70441;44.758;37.686;2023-11-22T00:47:34;9.21;81.18
78902;DHT22;70441;44.758;37.686;2023-11-22T00:48:35;9.21;80.99
78902;DHT22;70441;44.758;37.686;2023-11-22T00:49:37;9.17;81.17
78902;DHT22;70441;44.758;37.686;2023-11-22T00:50:38;9.14;81.70
78902;DHT22;70441;44.758;37.686;2023-11-22T00:51:39;9.19;82.17
78902;DHT22;70441;44.758;37.686;2023-11-22T00:52:41;9.19;82.11
78902;DHT22;70441;44.758;37.686;2023-11-22T00:53:45;9.24;82.32
78902;DHT22;70441;44.758;37.686;2023-11-22T00:54:47;9.30;82.24
78902;DHT22;70441;44.758;37.686;2023-11-22T00:55:48;9.32;82.19
78902;DHT22;70441;44.758;37.686;2023-11-22T00:56:50;9.34;82.05
78902;DHT22;70441;44.758;37.686;2023-11-22T00:57:51;9.39;82.02
78902;DHT22;70441;44.758;37.686;2023-11-22T00:58:53;9.46;82.19
78902;DHT22;70441;44.758;37.686;2023-11-22T00:59:54;9.51;82.21
78902;DHT22;70441;44.758;37.686;2023-11-22T01:00:58;9.52;82.01
78902;DHT22;70441;44.758;37.686;2023-11-22T01:01:59;9.53;81.96
78902;DHT22;70441;44.758;37.686;2023-11-22T01:03:01;9.56;82.13
78902;DHT22;70441;44.758;37.686;2023-11-22T01:04:02;9.58;82.56
78902;DHT22;70441;44.758;37.686;2023-11-22T01:05:07;9.65;83.29
78902;DHT22;70441;44.758;37.686;2023-11-22T01:06:17;9.73;84.17
78902;DHT22;70441;44.758;37.686;2023-11-22T01:07:19;9.85;84.46
78902;DHT22;70441;44.758;37.686;2023-11-22T01:08:20;9.93;84.59
78902;DHT22;70441;44.758;37.686;2023-11-22T01:09:21;10.00;84.29
78902;DHT22;70441;44.758;37.686;2023-11-22T01:10:23;10.01;83.90
78902;DHT22;70441;44.758;37.686;2023-11-22T01:11:24;10.05;84.20
78902;DHT22;70441;44.758;37.686;2023-11-22T01:12:25;10.05;83.63
78902;DHT22;70441;44.758;37.686;2023-11-22T01:13:27;10.08;83.97
78902;DHT22;70441;44.758;37.686;2023-11-22T01:14:29;10.14;84.06
78902;DHT22;70441;44.758;37.686;2023-11-22T01:15:30;10.20;84.21
78902;DHT22;70441;44.758;37.686;2023-11-22T01:16:32;10.22;84.26
78902;DHT22;70441;44.758;37.686;2023-11-22T01:17:34;10.29;84.41
78902;DHT22;70441;44.758;37.686;2023-11-22T01:18:36;10.32;84.34
78902;DHT22;70441;44.758;37.686;2023-11-22T01:19:38;10.38;84.20
78902;DHT22;70441;44.758;37.686;2023-11-22T01:20:39;10.42;83.91
78902;DHT22;70441;44.758;37.686;2023-11-22T01:21:41;10.48;83.69
78902;DHT22;70441;44.758;37.686;2023-11-22T01:22:42;10.49;83.48
78902;DHT22;70441;44.758;37.686;2023-11-22T01:23:43;10.53;83.31
78902;DHT22;70441;44.758;37.686;2023-11-22T01:24:46;10.59;83.17
78902;DHT22;70441;44.758;37.686;2023-11-22T01:25:48;10.62;83.05
78902;DHT22;70441;44.758;37.686;2023-11-22T01:26:51;10.64;82.92
78902;DHT22;70441;44.758;37.686;2023-11-22T01:27:52;10.67;82.91
78902;DHT22;70441;44.758;37.686;2023-11-22T01:28:54;10.67;83.02
78902;DHT22;70441;44.758;37.686;2023-11-22T01:29:58;10.69;83.06
78902;DHT22;70441;44.758;37.686;2023-11-22T01:30:59;10.73;82.90
78902;DHT22;70441;44.758;37.686;2023-11-22T01:32:01;10.76;82.70
78902;DHT22;70441;44.758;37.686;2023-11-22T01:33:02;10.81;82.71
78902;DHT22;70441;44.758;37.686;2023-11-22T01:34:03;10.81;82.67
78902;DHT22;70441;44.758;37.686;2023-11-22T01:35:05;10.85;82.64
78902;DHT22;70441;44.758;37.686;2023-11-22T01:36:07;10.87;82.80
78902;DHT22;70441;44.758;37.686;2023-11-22T01:37:09;10.87;82.79
78902;DHT22;70441;44.758;37.686;2023-11-22T01:38:10;10.91;82.82
78902;DHT22;70441;44.758;37.686;2023-11-22T01:39:11;10.94;82.97
78902;DHT22;70441;44.758;37.686;2023-11-22T01:40:15;10.94;83.12
78902;DHT22;70441;44.758;37.686;2023-11-22T01:41:17;10.97;83.21
78902;DHT22;70441;44.758;37.686;2023-11-22T01:42:19;11.00;83.19
78902;DHT22;70441;44.758;37.686;2023-11-22T01:43:21;10.98;83.28
78902;DHT22;70441;44.758;37.686;2023-11-22T01:44:25;11.03;83.11
78902;DHT22;70441;44.758;37.686;2023-11-22T01:45:27;11.05;83.13
78902;DHT22;70441;44.758;37.686;2023-11-22T01:46:29;11.05;83.26
78902;DHT22;70441;44.758;37.686;2023-11-22T01:47:30;11.08;83.34
78902;DHT22;70441;44.758;37.686;2023-11-22T01:48:31;11.10;83.41
78902;DHT22;70441;44.758;37.686;2023-11-22T01:49:33;11.10;83.34
78902;DHT22;70441;44.758;37.686;2023-11-22T01:50:34;11.11;83.19
78902;DHT22;70441;44.758;37.686;2023-11-22T01:51:40;11.14;83.28
78902;DHT22;70441;44.758;37.686;2023-11-22T01:52:42;11.15;83.26
78902;DHT22;70441;44.758;37.686;2023-11-22T01:53:43;11.15;83.30
78902;DHT22;70441;44.758;37.686;2023-11-22T01:54:45;11.15;83.43
78902;DHT22;70441;44.758;37.686;2023-11-22T01:55:46;11.19;83.63
78902;DHT22;70441;44.758;37.686;2023-11-22T01:56:48;11.19;83.74
78902;DHT22;70441;44.758;37.686;2023-11-22T01:57:49;11.21;83.81
78902;DHT22;70441;44.758;37.686;2023-11-22T01:58:51;11.22;83.68
78902;DHT22;70441;44.758;37.686;2023-11-22T01:59:53;11.26;83.50
78902;DHT22;70441;44.758;37.686;2023-11-22T02:00:54;11.25;83.30
78902;DHT22;70441;44.758;37.686;2023-11-22T02:01:56;11.29;83.13
78902;DHT22;70441;44.758;37.686;2023-11-22T02:02:57;11.32;83.23
78902;DHT22;70441;44.758;37.686;2023-11-22T02:03:59;11.32;83.35
78902;DHT22;70441;44.758;37.686;2023-11-22T02:05:02;11.32;83.18
78902;DHT22;70441;44.758;37.686;2023-11-22T02:06:04;11.36;82.86
78902;DHT22;70441;44.758;37.686;2023-11-22T02:07:06;11.35;82.80
78902;DHT22;70441;44.758;37.686;2023-11-22T02:08:09;11.38;82.94
78902;DHT22;70441;44.758;37.686;2023-11-22T02:09:11;11.39;82.86
78902;DHT22;70441;44.758;37.686;2023-11-22T02:10:16;11.39;82.89
78902;DHT22;70441;44.758;37.686;2023-11-22T02:11:18;11.40;82.99
78902;DHT22;70441;44.758;37.686;2023-11-22T02:12:23;11.43;83.09
78902;DHT22;70441;44.758;37.686;2023-11-22T02:13:24;11.43;83.26
78902;DHT22;70441;44.758;37.686;2023-11-22T02:14:26;11.43;83.28
78902;DHT22;70441;44.758;37.686;2023-11-22T02:15:27;11.47;83.24
78902;DHT22;70441;44.758;37.686;2023-11-22T02:16:28;11.44;83.25
78902;DHT22;70441;44.758;37.686;2023-11-22T02:17:30;11.50;82.74
78902;DHT22;70441;44.758;37.686;2023-11-22T02:18:32;11.50;82.81
78902;DHT22;70441;44.758;37.686;2023-11-22T02:19:34;11.50;82.65
78902;DHT22;70441;44.758;37.686;2023-11-22T02:20:37;11.54;82.63
78902;DHT22;70441;44.758;37.686;2023-11-22T02:21:39;11.54;82.41
78902;DHT22;70441;44.758;37.686;2023-11-22T02:22:44;11.54;82.10
78902;DHT22;70441;44.758;37.686;2023-11-22T02:23:46;11.57;82.13
78902;DHT22;70441;44.758;37.686;2023-11-22T02:24:48;11.59;81.89
78902;DHT22;70441;44.758;37.686;2023-11-22T02:25:50;11.59;81.82
78902;DHT22;70441;44.758;37.686;2023-11-22T02:26:51;11.64;81.93
78902;DHT22;70441;44.758;37.686;2023-11-22T02:27:52;11.63;81.90
78902;DHT22;70441;44.758;37.686;2023-11-22T02:28:54;11.67;81.90
78902;DHT22;70441;44.758;37.686;2023-11-22T02:29:55;11.66;81.86
78902;DHT22;70441;44.758;37.686;2023-11-22T02:30:56;11.69;81.78
78902;DHT22;70441;44.758;37.686;2023-11-22T02:31:57;11.70;81.53
78902;DHT22;70441;44.758;37.686;2023-11-22T02:33:00;11.75;81.59
78902;DHT22;70441;44.758;37.686;2023-11-22T02:34:01;11.73;81.40
78902;DHT22;70441;44.758;37.686;2023-11-22T02:35:02;11.77;81.20
78902;DHT22;70441;44.758;37.686;2023-11-22T02:36:08;11.78;81.27
78902;DHT22;70441;44.758;37.686;2023-11-22T02:37:13;11.81;81.13
78902;DHT22;70441;44.758;37.686;2023-11-22T02:38:14;11.80;81.25
78902;DHT22;70441;44.758;37.686;2023-11-22T02:39:16;11.80;81.13
78902;DHT22;70441;44.758;37.686;2023-11-22T02:40:21;11.82;81.00
78902;DHT22;70441;44.758;37.686;2023-11-22T02:41:22;11.84;80.72
78902;DHT22;70441;44.758;37.686;2023-11-22T02:42:26;11.88;80.86
78902;DHT22;70441;44.758;37.686;2023-11-22T02:43:27;11.84;81.14
78902;DHT22;70441;44.758;37.686;2023-11-22T02:44:28;11.89;81.11
78902;DHT22;70441;44.758;37.686;2023-11-22T02:45:29;11.87;80.92
78902;DHT22;70441;44.758;37.686;2023-11-22T02:46:31;11.91;80.75
78902;DHT22;70441;44.758;37.686;2023-11-22T02:47:32;11.92;80.91
78902;DHT22;70441;44.758;37.686;2023-11-22T02:48:35;11.95;80.91
78902;DHT22;70441;44.758;37.686;2023-11-22T02:49:37;11.97;81.08
78902;DHT22;70441;44.758;37.686;2023-11-22T02:50:39;11.99;81.11
78902;DHT22;70441;44.758;37.686;2023-11-22T02:51:40;11.99;81.03
78902;DHT22;70441;44.758;37.686;2023-11-22T02:52:42;12.01;81.12
78902;DHT22;70441;44.758;37.686;2023-11-22T02:53:43;12.02;80.91
78902;DHT22;70441;44.758;37.686;2023-11-22T02:54:47;12.02;80.89
78902;DHT22;70441;44.758;37.686;2023-11-22T02:55:48;12.05;80.80
78902;DHT22;70441;44.758;37.686;2023-11-22T02:56:50;12.02;80.81
78902;DHT22;70441;44.758;37.686;2023-11-22T02:57:51;12.06;81.00
78902;DHT22;70441;44.758;37.686;2023-11-22T02:58:52;12.08;81.28
78902;DHT22;70441;44.758;37.686;2023-11-22T02:59:54;12.08;81.34
78902;DHT22;70441;44.758;37.686;2023-11-22T03:00:55;12.11;81.29
78902;DHT22;70441;44.758;37.686;2023-11-22T03:01:58;12.13;80.55
78902;DHT22;70441;44.758;37.686;2023-11-22T03:02:59;12.13;80.55
78902;DHT22;70441;44.758;37.686;2023-11-22T03:04:00;12.16;80.61
78902;DHT22;70441;44.758;37.686;2023-11-22T03:05:02;12.16;80.75
78902;DHT22;70441;44.758;37.686;2023-11-22T03:06:04;12.16;80.78
78902;DHT22;70441;44.758;37.686;2023-11-22T03:07:05;12.19;80.32
78902;DHT22;70441;44.758;37.686;2023-11-22T03:08:07;12.19;80.48
78902;DHT22;70441;44.758;37.686;2023-11-22T03:09:08;12.19;80.64
78902;DHT22;70441;44.758;37.686;2023-11-22T03:10:10;12.22;80.33
78902;DHT22;70441;44.758;37.686;2023-11-22T03:11:11;12.23;80.03
78902;DHT22;70441;44.758;37.686;2023-11-22T03:12:15;12.29;80.02
78902;DHT22;70441;44.758;37.686;2023-11-22T03:13:17;12.26;80.08
78902;DHT22;70441;44.758;37.686;2023-11-22T03:14:19;12.30;80.23
78902;DHT22;70441;44.758;37.686;2023-11-22T03:15:21;12.29;79.85
78902;DHT22;70441;44.758;37.686;2023-11-22T03:16:22;12.30;80.07
78902;DHT22;70441;44.758;37.686;2023-11-22T03:17:27;12.29;80.17
78902;DHT22;70441;44.758;37.686;2023-11-22T03:18:31;12.33;80.31
78902;DHT22;70441;44.758;37.686;2023-11-22T03:19:32;12.29;80.22
78902;DHT22;70441;44.758;37.686;2023-11-22T03:20:35;12.30;80.03
78902;DHT22;70441;44.758;37.686;2023-11-22T03:21:39;12.30;79.47
78902;DHT22;70441;44.758;37.686;2023-11-22T03:22:42;12.29;79.35
78902;DHT22;70441;44.758;37.686;2023-11-22T03:23:46;12.32;79.30
78902;DHT22;70441;44.758;37.686;2023-11-22T03:24:48;12.30;79.26
78902;DHT22;70441;44.758;37.686;2023-11-22T03:25:50;12.32;79.51
78902;DHT22;70441;44.758;37.686;2023-11-22T03:26:51;12.30;79.02
78902;DHT22;70441;44.758;37.686;2023-11-22T03:27:53;12.32;78.79
78902;DHT22;70441;44.758;37.686;2023-11-22T03:28:55;12.33;78.88
78902;DHT22;70441;44.758;37.686;2023-11-22T03:29:56;12.32;79.17
78902;DHT22;70441;44.758;37.686;2023-11-22T03:30:57;12.33;79.08
78902;DHT22;70441;44.758;37.686;2023-11-22T03:32:00;12.33;79.19
78902;DHT22;70441;44.758;37.686;2023-11-22T03:33:02;12.33;79.47
78902;DHT22;70441;44.758;37.686;2023-11-22T03:34:04;12.33;79.98
78902;DHT22;70441;44.758;37.686;2023-11-22T03:35:07;12.30;80.24
78902;DHT22;70441;44.758;37.686;2023-11-22T03:36:08;12.28;80.68
78902;DHT22;70441;44.758;37.686;2023-11-22T03:37:12;12.29;80.64
78902;DHT22;70441;44.758;37.686;2023-11-22T03:38:14;12.26;80.68
78902;DHT22;70441;44.758;37.686;2023-11-22T03:39:16;12.29;80.47
78902;DHT22;70441;44.758;37.686;2023-11-22T03:40:17;12.28;80.33
78902;DHT22;70441;44.758;37.686;2023-11-22T03:41:18;12.29;80.32
78902;DHT22;70441;44.758;37.686;2023-11-22T03:42:20;12.29;80.30
78902;DHT22;70441;44.758;37.686;2023-11-22T03:43:22;12.28;80.61
78902;DHT22;70441;44.758;37.686;2023-11-22T03:44:23;12.30;80.45
78902;DHT22;70441;44.758;37.686;2023-11-22T03:45:24;12.29;80.40
78902;DHT22;70441;44.758;37.686;2023-11-22T03:46:27;12.30;80.54
78902;DHT22;70441;44.758;37.686;2023-11-22T03:47:29;12.30;79.99
78902;DHT22;70441;44.758;37.686;2023-11-22T03:48:30;12.33;79.93
78902;DHT22;70441;44.758;37.686;2023-11-22T03:49:35;12.34;79.92
78902;DHT22;70441;44.758;37.686;2023-11-22T03:50:36;12.36;79.89
78902;DHT22;70441;44.758;37.686;2023-11-22T03:51:38;12.34;79.91
78902;DHT22;70441;44.758;37.686;2023-11-22T03:52:40;12.36;80.31
78902;DHT22;70441;44.758;37.686;2023-11-22T03:53:41;12.34;80.56
78902;DHT22;70441;44.758;37.686;2023-11-22T03:54:43;12.34;80.71
78902;DHT22;70441;44.758;37.686;2023-11-22T03:55:45;12.32;80.99
78902;DHT22;70441;44.758;37.686;2023-11-22T03:56:46;12.33;81.02
78902;DHT22;70441;44.758;37.686;2023-11-22T03:57:47;12.33;81.11
78902;DHT22;70441;44.758;37.686;2023-11-22T03:58:49;12.33;81.30
78902;DHT22;70441;44.758;37.686;2023-11-22T03:59:50;12.29;81.44
78902;DHT22;70441;44.758;37.686;2023-11-22T04:00:51;12.29;81.40
78902;DHT22;70441;44.758;37.686;2023-11-22T04:01:53;12.26;81.83
78902;DHT22;70441;44.758;37.686;2023-11-22T04:02:54;12.28;81.80
78902;DHT22;70441;44.758;37.686;2023-11-22T04:03:57;12.26;81.96
78902;DHT22;70441;44.758;37.686;2023-11-22T04:04:59;12.26;81.58
78902;DHT22;70441;44.758;37.686;2023-11-22T04:06:00;12.28;81.82
78902;DHT22;70441;44.758;37.686;2023-11-22T04:07:02;12.29;81.89
78902;DHT22;70441;44.758;37.686;2023-11-22T04:08:04;12.29;81.74
78902;DHT22;70441;44.758;37.686;2023-11-22T04:09:05;12.26;81.55
78902;DHT22;70441;44.758;37.686;2023-11-22T04:10:07;12.30;81.66
78902;DHT22;70441;44.758;37.686;2023-11-22T04:11:08;12.29;81.53
78902;DHT22;70441;44.758;37.686;2023-11-22T04:12:10;12.33;81.34
78902;DHT22;70441;44.758;37.686;2023-11-22T04:13:11;12.15;77.20
78902;DHT22;70441;44.758;37.686;2023-11-22T04:14:13;11.94;78.14
78902;DHT22;70441;44.758;37.686;2023-11-22T04:15:14;11.84;77.49
78902;DHT22;70441;44.758;37.686;2023-11-22T04:16:15;11.71;77.25
78902;DHT22;70441;44.758;37.686;2023-11-22T04:17:18;11.44;78.14
78902;DHT22;70441;44.758;37.686;2023-11-22T04:18:19;11.29;79.08
78902;DHT22;70441;44.758;37.686;2023-11-22T04:19:20;11.21;79.15
78902;DHT22;70441;44.758;37.686;2023-11-22T04:20:22;11.11;79.48
78902;DHT22;70441;44.758;37.686;2023-11-22T04:21:23;11.04;79.83
78902;DHT22;70441;44.758;37.686;2023-11-22T04:22:25;11.01;79.93
78902;DHT22;70441;44.758;37.686;2023-11-22T04:23:26;10.94;80.16
78902;DHT22;70441;44.758;37.686;2023-11-22T04:24:27;10.93;80.17
78902;DHT22;70441;44.758;37.686;2023-11-22T04:25:29;10.90;80.45
78902;DHT22;70441;44.758;37.686;2023-11-22T04:26:30;10.91;80.46
78902;DHT22;70441;44.758;37.686;2023-11-22T04:27:33;10.85;80.42
78902;DHT22;70441;44.758;37.686;2023-11-22T04:28:34;10.81;80.57
78902;DHT22;70441;44.758;37.686;2023-11-22T04:29:35;10.80;80.53
78902;DHT22;70441;44.758;37.686;2023-11-22T04:30:37;10.71;80.58
78902;DHT22;70441;44.758;37.686;2023-11-22T04:31:38;10.67;80.96
78902;DHT22;70441;44.758;37.686;2023-11-22T04:32:40;10.69;81.21
78902;DHT22;70441;44.758;37.686;2023-11-22T04:33:43;10.71;81.26
78902;DHT22;70441;44.758;37.686;2023-11-22T04:34:44;10.81;82.91
78902;DHT22;70441;44.758;37.686;2023-11-22T04:35:45;10.90;82.99
78902;DHT22;70441;44.758;37.686;2023-11-22T04:36:47;10.87;82.23
78902;DHT22;70441;44.758;37.686;2023-11-22T04:37:48;10.87;82.39
78902;DHT22;70441;44.758;37.686;2023-11-22T04:38:50;10.90;81.93
78902;DHT22;70441;44.758;37.686;2023-11-22T04:39:51;10.90;81.95
78902;DHT22;70441;44.758;37.686;2023-11-22T04:40:53;10.95;82.56
78902;DHT22;70441;44.758;37.686;2023-11-22T04:41:54;11.04;83.49
78902;DHT22;70441;44.758;37.686;2023-11-22T04:42:56;11.12;84.43
78902;DHT22;70441;44.758;37.686;2023-11-22T04:43:57;11.29;85.15
78902;DHT22;70441;44.758;37.686;2023-11-22T04:44:58;11.40;85.11
78902;DHT22;70441;44.758;37.686;2023-11-22T04:46:00;11.52;84.74
78902;DHT22;70441;44.758;37.686;2023-11-22T04:47:01;11.60;84.42
78902;DHT22;70441;44.758;37.686;2023-11-22T04:48:03;11.71;84.21
78902;DHT22;70441;44.758;37.686;2023-11-22T04:49:05;11.81;84.21
78902;DHT22;70441;44.758;37.686;2023-11-22T04:50:09;11.88;84.00
78902;DHT22;70441;44.758;37.686;2023-11-22T04:51:14;11.92;83.98
78902;DHT22;70441;44.758;37.686;2023-11-22T04:52:17;11.98;83.62
78902;DHT22;70441;44.758;37.686;2023-11-22T04:53:19;12.04;83.38
78902;DHT22;70441;44.758;37.686;2023-11-22T04:54:20;12.09;83.19
78902;DHT22;70441;44.758;37.686;2023-11-22T04:55:22;12.15;83.21
78902;DHT22;70441;44.758;37.686;2023-11-22T04:56:26;12.19;83.17
78902;DHT22;70441;44.758;37.686;2023-11-22T04:57:28;12.21;83.26
78902;DHT22;70441;44.758;37.686;2023-11-22T04:58:30;12.22;83.13
78902;DHT22;70441;44.758;37.686;2023-11-22T04:59:32;12.26;83.16
78902;DHT22;70441;44.758;37.686;2023-11-22T05:00:33;12.30;83.16
78902;DHT22;70441;44.758;37.686;2023-11-22T05:01:35;12.33;83.03
78902;DHT22;70441;44.758;37.686;2023-11-22T05:02:37;12.36;82.91
78902;DHT22;70441;44.758;37.686;2023-11-22T05:03:39;12.37;82.54
78902;DHT22;70441;44.758;37.686;2023-11-22T05:04:40;12.41;82.49
78902;DHT22;70441;44.758;37.686;2023-11-22T05:05:43;12.44;82.66
78902;DHT22;70441;44.758;37.686;2023-11-22T05:06:45;12.47;82.67
78902;DHT22;70441;44.758;37.686;2023-11-22T05:07:47;12.50;82.53
78902;DHT22;70441;44.758;37.686;2023-11-22T05:08:49;12.50;82.61
78902;DHT22;70441;44.758;37.686;2023-11-22T05:09:53;12.48;82.24
78902;DHT22;70441;44.758;37.686;2023-11-22T05:10:55;12.51;82.03
78902;DHT22;70441;44.758;37.686;2023-11-22T05:11:57;12.51;81.42
78902;DHT22;70441;44.758;37.686;2023-11-22T05:12:58;12.56;81.14
78902;DHT22;70441;44.758;37.686;2023-11-22T05:14:01;12.58;81.01
78902;DHT22;70441;44.758;37.686;2023-11-22T05:15:03;12.58;80.91
78902;DHT22;70441;44.758;37.686;2023-11-22T05:16:07;12.58;81.00
78902;DHT22;70441;44.758;37.686;2023-11-22T05:17:09;12.64;80.92
78902;DHT22;70441;44.758;37.686;2023-11-22T05:18:11;12.64;81.01
78902;DHT22;70441;44.758;37.686;2023-11-22T05:19:15;12.68;80.94
78902;DHT22;70441;44.758;37.686;2023-11-22T05:20:17;12.67;80.67
78902;DHT22;70441;44.758;37.686;2023-11-22T05:21:19;12.67;80.80
78902;DHT22;70441;44.758;37.686;2023-11-22T05:22:21;12.68;80.71
78902;DHT22;70441;44.758;37.686;2023-11-22T05:23:27;12.69;80.73
78902;DHT22;70441;44.758;37.686;2023-11-22T05:24:28;12.72;80.82
78902;DHT22;70441;44.758;37.686;2023-11-22T05:25:30;12.74;80.87
78902;DHT22;70441;44.758;37.686;2023-11-22T05:26:31;12.75;80.68
78902;DHT22;70441;44.758;37.686;2023-11-22T05:27:35;12.75;80.20
78902;DHT22;70441;44.758;37.686;2023-11-22T05:28:37;12.80;79.30
78902;DHT22;70441;44.758;37.686;2023-11-22T05:29:38;12.82;79.29
78902;DHT22;70441;44.758;37.686;2023-11-22T05:30:40;12.80;79.15
78902;DHT22;70441;44.758;37.686;2023-11-22T05:31:42;12.84;79.28
78902;DHT22;70441;44.758;37.686;2023-11-22T05:32:43;12.85;79.66
78902;DHT22;70441;44.758;37.686;2023-11-22T05:33:45;12.88;79.92
78902;DHT22;70441;44.758;37.686;2023-11-22T05:34:46;12.85;79.88
78902;DHT22;70441;44.758;37.686;2023-11-22T05:35:48;12.87;79.78
78902;DHT22;70441;44.758;37.686;2023-11-22T05:36:49;12.91;79.53
78902;DHT22;70441;44.758;37.686;2023-11-22T05:37:51;12.88;78.91
78902;DHT22;70441;44.758;37.686;2023-11-22T05:39:17;12.88;78.87
78902;DHT22;70441;44.758;37.686;2023-11-22T05:40:22;12.91;78.68
78902;DHT22;70441;44.758;37.686;2023-11-22T05:41:24;12.93;79.04
78902;DHT22;70441;44.758;37.686;2023-11-22T05:42:29;12.91;79.16
78902;DHT22;70441;44.758;37.686;2023-11-22T05:43:31;12.95;79.52
78902;DHT22;70441;44.758;37.686;2023-11-22T05:44:32;12.98;79.72
78902;DHT22;70441;44.758;37.686;2023-11-22T05:45:34;13.00;79.82
78902;DHT22;70441;44.758;37.686;2023-11-22T05:46:36;13.00;79.33
78902;DHT22;70441;44.758;37.686;2023-11-22T05:47:39;13.05;78.77
78902;DHT22;70441;44.758;37.686;2023-11-22T05:48:41;13.02;78.80
78902;DHT22;70441;44.758;37.686;2023-11-22T05:49:42;13.03;78.61
78902;DHT22;70441;44.758;37.686;2023-11-22T05:50:44;13.06;78.73
78902;DHT22;70441;44.758;37.686;2023-11-22T05:51:46;13.07;78.92
78902;DHT22;70441;44.758;37.686;2023-11-22T05:52:47;13.07;78.90
78902;DHT22;70441;44.758;37.686;2023-11-22T05:53:49;13.07;78.87
78902;DHT22;70441;44.758;37.686;2023-11-22T05:54:50;13.07;78.95
78902;DHT22;70441;44.758;37.686;2023-11-22T05:55:52;13.09;78.61
78902;DHT22;70441;44.758;37.686;2023-11-22T05:56:56;13.10;78.62
78902;DHT22;70441;44.758;37.686;2023-11-22T05:57:57;13.10;78.39
78902;DHT22;70441;44.758;37.686;2023-11-22T05:58:59;13.13;78.57
78902;DHT22;70441;44.758;37.686;2023-11-22T06:00:00;13.12;78.34
78902;DHT22;70441;44.758;37.686;2023-11-22T06:01:02;13.12;78.34
78902;DHT22;70441;44.758;37.686;2023-11-22T06:02:03;13.17;78.51
78902;DHT22;70441;44.758;37.686;2023-11-22T06:03:05;13.19;78.56
78902;DHT22;70441;44.758;37.686;2023-11-22T06:04:06;13.17;78.06
78902;DHT22;70441;44.758;37.686;2023-11-22T06:05:10;13.14;78.06
78902;DHT22;70441;44.758;37.686;2023-11-22T06:06:12;13.17;77.94
78902;DHT22;70441;44.758;37.686;2023-11-22T06:07:15;13.20;77.77
78902;DHT22;70441;44.758;37.686;2023-11-22T06:08:16;13.22;77.53
78902;DHT22;70441;44.758;37.686;2023-11-22T06:09:18;13.22;77.28
78902;DHT22;70441;44.758;37.686;2023-11-22T06:10:19;13.24;77.48
78902;DHT22;70441;44.758;37.686;2023-11-22T06:11:21;13.26;77.85
78902;DHT22;70441;44.758;37.686;2023-11-22T06:12:22;13.26;78.28
78902;DHT22;70441;44.758;37.686;2023-11-22T06:13:24;13.27;78.34
78902;DHT22;70441;44.758;37.686;2023-11-22T06:14:25;13.27;78.35
78902;DHT22;70441;44.758;37.686;2023-11-22T06:15:26;13.30;78.59
78902;DHT22;70441;44.758;37.686;2023-11-22T06:16:28;13.27;78.17
78902;DHT22;70441;44.758;37.686;2023-11-22T06:17:29;13.31;77.85
78902;DHT22;70441;44.758;37.686;2023-11-22T06:18:31;13.30;78.13
78902;DHT22;70441;44.758;37.686;2023-11-22T06:19:35;13.36;78.14
78902;DHT22;70441;44.758;37.686;2023-11-22T06:20:36;13.34;78.31
78902;DHT22;70441;44.758;37.686;2023-11-22T06:21:38;13.36;77.89
78902;DHT22;70441;44.758;37.686;2023-11-22T06:22:39;13.37;77.20
78902;DHT22;70441;44.758;37.686;2023-11-22T06:23:43;13.40;76.35
78902;DHT22;70441;44.758;37.686;2023-11-22T06:24:44;13.37;76.91
78902;DHT22;70441;44.758;37.686;2023-11-22T06:25:48;13.43;77.57